Time;durP1;ratioP1;P1;durP2;ratioP2;P2;SDS_P1;SDS_P2;PMS_P1;PMS_P2;Temp;Humidity;BMP_temperature;BMP_pressure;BME280_temperature;BME280_humidity;BME280_pressure;Samples;Min_cycle;Max_cycle;Signal;HPM_P1;HPM_P2
2022/03/20 00:00:32;;;;;;;6.85;4.35;;;4.60;99.90;;;;;;5039764;28;20401;-68
2022/03/20 00:02:58;;;;;;;8.80;4.68;;;4.60;99.90;;;;;;5039380;28;20052;-69
2022/03/20 00:05:23;;;;;;;8.70;4.88;;;4.50;99.90;;;;;;5033404;28;20048;-70
2022/03/20 00:07:49;;;;;;;7.38;4.85;;;4.50;99.90;;;;;;5044604;28;20037;-70
2022/03/20 00:10:16;;;;;;;5.75;4.57;;;4.50;99.90;;;;;;5052494;28;20041;-69
2022/03/20 00:12:43;;;;;;;7.03;4.88;;;4.40;99.90;;;;;;5051585;28;20545;-70
2022/03/20 00:15:09;;;;;;;7.15;4.30;;;4.40;99.90;;;;;;5051215;28;20053;-70
2022/03/20 00:17:36;;;;;;;7.30;4.65;;;4.30;99.90;;;;;;5050824;28;20046;-70
2022/03/20 00:20:03;;;;;;;7.53;4.72;;;4.20;99.90;;;;;;5034726;28;20041;-69
2022/03/20 00:22:30;;;;;;;6.15;4.78;;;4.20;99.90;;;;;;5038597;28;20049;-69
2022/03/20 00:24:56;;;;;;;9.60;5.15;;;4.10;99.90;;;;;;5050367;28;20492;-70
2022/03/20 00:27:22;;;;;;;7.95;4.68;;;4.10;99.90;;;;;;5046029;28;20048;-70
2022/03/20 00:29:48;;;;;;;8.93;5.63;;;4.00;99.90;;;;;;5031880;28;20053;-70
2022/03/20 00:32:14;;;;;;;7.28;5.22;;;3.90;99.90;;;;;;5029791;28;20496;-70
2022/03/20 00:34:40;;;;;;;7.82;5.75;;;3.90;99.90;;;;;;5028849;28;20135;-70
2022/03/20 00:37:07;;;;;;;7.35;4.97;;;3.90;99.90;;;;;;5029201;28;20084;-70
2022/03/20 00:39:33;;;;;;;10.10;5.78;;;3.90;99.90;;;;;;5031156;28;20048;-70
2022/03/20 00:41:59;;;;;;;8.98;4.80;;;3.80;99.90;;;;;;5028606;28;20100;-70
2022/03/20 00:44:25;;;;;;;5.90;4.20;;;3.80;99.90;;;;;;5029610;28;20056;-70
2022/03/20 00:46:51;;;;;;;5.90;4.20;;;3.70;99.90;;;;;;5030993;28;20120;-70
2022/03/20 00:49:16;;;;;;;7.75;4.68;;;3.70;99.90;;;;;;5029202;28;20041;-70
2022/03/20 00:51:43;;;;;;;10.10;5.80;;;3.70;99.90;;;;;;5043171;28;20045;-70
2022/03/20 00:54:10;;;;;;;13.75;5.10;;;3.60;99.90;;;;;;5039867;28;20041;-70
2022/03/20 00:56:37;;;;;;;7.53;4.90;;;3.60;99.90;;;;;;5033138;28;20373;-70
2022/03/20 00:59:03;;;;;;;10.38;5.18;;;3.60;99.90;;;;;;5032562;28;20091;-70
2022/03/20 01:01:29;;;;;;;9.05;4.95;;;3.60;99.90;;;;;;5041417;28;20404;-70
2022/03/20 01:03:55;;;;;;;7.45;4.63;;;3.60;99.90;;;;;;5050250;28;20045;-70
2022/03/20 01:06:22;;;;;;;9.98;5.97;;;3.60;99.90;;;;;;5049035;28;20056;-71
2022/03/20 01:08:52;;;;;;;8.48;5.45;;;3.60;99.90;;;;;;5047468;28;20067;-70
2022/03/20 01:11:19;;;;;;;10.75;5.43;;;3.60;99.90;;;;;;5028760;28;20045;-70
2022/03/20 01:13:44;;;;;;;11.45;5.93;;;3.60;99.90;;;;;;5030381;28;20053;-70
2022/03/20 01:16:10;;;;;;;9.82;5.60;;;3.60;99.90;;;;;;5030203;28;20049;-70
2022/03/20 01:18:36;;;;;;;9.80;5.47;;;3.60;99.90;;;;;;5029441;28;20045;-70
2022/03/20 01:21:03;;;;;;;8.25;5.28;;;3.50;99.90;;;;;;5029284;28;20054;-70
2022/03/20 01:23:29;;;;;;;8.65;5.13;;;3.50;99.90;;;;;;5030079;28;20128;-70
2022/03/20 01:25:55;;;;;;;12.02;5.80;;;3.50;99.90;;;;;;5030506;28;20042;-70
2022/03/20 01:28:23;;;;;;;10.00;5.32;;;3.50;99.90;;;;;;4995315;28;1020540;-70
2022/03/20 01:30:49;;;;;;;7.72;4.97;;;3.50;99.90;;;;;;5030574;28;20048;-70
2022/03/20 01:33:16;;;;;;;10.40;5.35;;;3.50;99.90;;;;;;5030342;28;20080;-70
2022/03/20 01:35:42;;;;;;;10.05;5.18;;;3.50;99.90;;;;;;5029665;28;20125;-70
2022/03/20 01:38:08;;;;;;;11.75;5.25;;;3.40;99.90;;;;;;5029325;28;20500;-70
2022/03/20 01:40:34;;;;;;;11.40;5.80;;;3.40;99.90;;;;;;5041537;28;20143;-70
2022/03/20 01:43:00;;;;;;;8.35;6.03;;;3.40;99.90;;;;;;5049393;28;20041;-70
2022/03/20 01:45:26;;;;;;;11.55;6.82;;;3.40;99.90;;;;;;5050563;28;20138;-70
2022/03/20 01:47:54;;;;;;;10.95;6.30;;;3.40;99.90;;;;;;5049414;28;20490;-69
2022/03/20 01:50:27;;;;;;;9.02;5.53;;;3.00;99.90;;;;;;5049537;28;20594;-70
2022/03/20 01:52:54;;;;;;;10.52;6.22;;;3.40;99.90;;;;;;5050086;28;20041;-70
2022/03/20 01:55:22;;;;;;;8.10;5.60;;;3.40;99.90;;;;;;5050859;28;20048;-70
2022/03/20 01:57:49;;;;;;;11.50;5.82;;;3.30;99.90;;;;;;5050493;28;20048;-70
2022/03/20 02:00:18;;;;;;;6.93;4.85;;;3.30;99.90;;;;;;5050862;28;20051;-70
2022/03/20 02:02:44;;;;;;;11.90;6.30;;;3.30;99.90;;;;;;5050715;28;20048;-70
2022/03/20 02:05:10;;;;;;;11.70;6.35;;;3.30;99.90;;;;;;5050264;28;20716;-70
2022/03/20 02:07:38;;;;;;;13.55;6.78;;;3.30;99.90;;;;;;5049657;28;20097;-70
2022/03/20 02:10:04;;;;;;;18.10;6.82;;;3.30;99.90;;;;;;5049412;28;20139;-70
2022/03/20 02:12:31;;;;;;;8.80;5.63;;;3.30;99.90;;;;;;5046789;28;20484;-70
2022/03/20 02:14:58;;;;;;;11.40;7.38;;;3.30;99.90;;;;;;5036540;28;20042;-70
2022/03/20 02:17:28;;;;;;;10.02;7.13;;;3.20;99.90;;;;;;5041642;28;20145;-70
2022/03/20 02:19:57;;;;;;;10.82;7.13;;;3.20;99.90;;;;;;5037730;28;20127;-70
2022/03/20 02:22:24;;;;;;;13.95;7.93;;;3.30;99.90;;;;;;5039891;28;20045;-69
2022/03/20 02:24:51;;;;;;;13.93;7.78;;;3.20;99.90;;;;;;5043315;28;20052;-70
2022/03/20 02:27:23;;;;;;;13.40;6.45;;;3.20;99.90;;;;;;5029837;28;20065;-70
2022/03/20 02:29:52;;;;;;;13.75;6.70;;;3.20;99.90;;;;;;5050364;28;20049;-70
2022/03/20 02:32:20;;;;;;;9.95;6.05;;;3.20;99.90;;;;;;5049249;28;20057;-70
2022/03/20 02:34:48;;;;;;;10.32;6.47;;;3.10;99.90;;;;;;5035408;28;20037;-70
2022/03/20 02:37:15;;;;;;;10.00;7.28;;;3.10;99.90;;;;;;5042733;28;20057;-70
2022/03/20 02:39:40;;;;;;;15.13;7.32;;;3.10;99.90;;;;;;5033387;28;20448;-70
2022/03/20 02:42:07;;;;;;;10.27;7.68;;;3.00;99.90;;;;;;5035426;28;20127;-70
2022/03/20 02:44:55;;;;;;;15.50;8.63;;;3.00;99.90;;;;;;5049083;28;20080;-70
2022/03/20 02:47:25;;;;;;;13.75;6.88;;;3.00;99.90;;;;;;5045962;28;20056;-70
2022/03/20 02:50:07;;;;;;;11.88;6.85;;;3.00;99.90;;;;;;5028849;28;20060;-69
2022/03/20 02:52:48;;;;;;;10.27;7.43;;;2.90;99.90;;;;;;5029172;28;20049;-71
2022/03/20 02:55:16;;;;;;;15.95;8.48;;;2.90;99.90;;;;;;5030050;28;20052;-70
2022/03/20 02:57:42;;;;;;;16.40;8.48;;;2.80;99.90;;;;;;5028735;28;20084;-70
2022/03/20 03:00:08;;;;;;;11.35;8.38;;;2.80;99.90;;;;;;5033886;28;20467;-70
2022/03/20 03:02:36;;;;;;;12.82;7.40;;;2.80;99.90;;;;;;5032209;28;20092;-70
2022/03/20 03:05:02;;;;;;;14.63;8.25;;;2.80;99.90;;;;;;5033931;28;20061;-69
2022/03/20 03:10:55;;;;;;;12.13;9.15;;;2.70;99.90;;;;;;5033764;28;20049;-70
2022/03/20 03:13:04;;;;;;;16.88;9.68;;;2.70;99.90;;;;;;5032723;28;20057;-69
2022/03/20 03:15:29;;;;;;;12.43;8.52;;;2.70;99.90;;;;;;5033401;28;20049;-70
2022/03/20 03:17:56;;;;;;;14.85;9.82;;;2.70;99.90;;;;;;5033697;28;20049;-70
2022/03/20 03:20:21;;;;;;;16.75;9.15;;;2.70;99.90;;;;;;5032458;28;20054;-70
2022/03/20 03:22:47;;;;;;;14.38;8.70;;;2.60;99.90;;;;;;5032944;28;20388;-70
2022/03/20 03:25:12;;;;;;;12.60;9.32;;;2.60;99.90;;;;;;5032581;28;20045;-69
2022/03/20 03:27:38;;;;;;;14.32;9.18;;;2.60;99.90;;;;;;5032160;28;20671;-70
2022/03/20 03:30:04;;;;;;;16.25;9.82;;;2.60;99.90;;;;;;5031787;28;20052;-70
2022/03/20 03:32:30;;;;;;;13.15;8.80;;;2.50;99.90;;;;;;5043293;28;20135;-70
2022/03/20 03:37:40;;;;;;;18.20;10.63;;;2.50;99.90;;;;;;5032537;28;20053;-69
2022/03/20 03:40:07;;;;;;;15.27;10.52;;;2.50;99.90;;;;;;5033442;28;20033;-69
2022/03/20 03:42:36;;;;;;;13.23;8.77;;;2.50;99.90;;;;;;5033556;28;20060;-69
2022/03/20 03:45:04;;;;;;;21.98;10.18;;;2.50;99.90;;;;;;5031086;28;20488;-69
2022/03/20 03:47:30;;;;;;;18.17;10.48;;;2.50;99.90;;;;;;5033370;28;20049;-69
2022/03/20 03:49:56;;;;;;;16.45;10.00;;;2.50;99.90;;;;;;5031516;28;20660;-70
2022/03/20 03:52:21;;;;;;;15.93;9.40;;;2.50;99.90;;;;;;5032472;28;20129;-70
2022/03/20 03:54:47;;;;;;;17.63;11.55;;;2.60;99.90;;;;;;5033070;28;20037;-69
2022/03/20 03:57:13;;;;;;;20.00;10.05;;;2.50;99.90;;;;;;5031743;28;20102;-70
2022/03/20 03:59:39;;;;;;;16.45;11.32;;;2.50;99.90;;;;;;5032299;28;20049;-69
2022/03/20 04:02:05;;;;;;;15.07;10.68;;;2.70;99.90;;;;;;5033161;28;20099;-69
2022/03/20 04:04:30;;;;;;;15.98;11.07;;;2.50;99.90;;;;;;5032198;28;20466;-69
2022/03/20 04:06:56;;;;;;;17.40;11.23;;;2.50;99.90;;;;;;5032566;28;20051;-69
2022/03/20 04:09:22;;;;;;;16.48;10.23;;;2.50;99.90;;;;;;5032313;28;20048;-69
2022/03/20 04:11:48;;;;;;;14.25;9.63;;;2.50;99.90;;;;;;5030040;28;20053;-69
2022/03/20 04:14:14;;;;;;;16.88;9.15;;;2.50;99.90;;;;;;5032881;28;20503;-70
2022/03/20 04:16:39;;;;;;;19.80;10.65;;;2.40;99.90;;;;;;5035676;28;20052;-69
2022/03/20 04:19:05;;;;;;;17.67;10.70;;;2.40;99.90;;;;;;5050572;28;20132;-69
2022/03/20 04:21:31;;;;;;;12.45;8.60;;;2.40;99.90;;;;;;5051152;28;20080;-69
2022/03/20 04:23:56;;;;;;;18.95;11.93;;;2.40;99.90;;;;;;5050853;28;20124;-70
2022/03/20 04:26:23;;;;;;;17.88;11.10;;;2.40;99.90;;;;;;5052009;28;20391;-69
2022/03/20 04:28:51;;;;;;;16.85;11.25;;;2.40;99.90;;;;;;5051926;28;20053;-69
2022/03/20 04:31:19;;;;;;;23.23;13.27;;;2.40;99.90;;;;;;5051216;28;20053;-69
2022/03/20 04:33:50;;;;;;;19.33;11.05;;;2.40;99.90;;;;;;5051503;28;20049;-69
2022/03/20 04:36:17;;;;;;;17.45;10.63;;;2.30;99.90;;;;;;5050922;28;20080;-70
2022/03/20 04:38:43;;;;;;;20.23;12.10;;;2.30;99.90;;;;;;5050652;28;20518;-69
2022/03/20 04:41:09;;;;;;;19.45;10.07;;;2.30;99.90;;;;;;5051747;28;20096;-69
2022/03/20 04:43:35;;;;;;;24.52;13.45;;;2.30;99.90;;;;;;5051210;28;20226;-69
2022/03/20 04:46:01;;;;;;;17.70;11.98;;;2.20;99.90;;;;;;5050755;28;20427;-69
2022/03/20 04:59:24;;;;;;;15.50;9.98;;;2.20;99.90;;;;;;5050544;28;20053;-69
2022/03/20 05:01:50;;;;;;;19.75;11.45;;;2.10;99.90;;;;;;5051015;28;20048;-69
2022/03/20 05:04:15;;;;;;;17.17;11.63;;;2.10;99.90;;;;;;5051881;28;20045;-69
2022/03/20 05:06:44;;;;;;;20.27;11.30;;;2.10;99.90;;;;;;5050456;28;20048;-70
2022/03/20 05:14:38;;;;;;;22.27;12.57;;;2.00;99.90;;;;;;5051591;28;20076;-69
2022/03/20 05:17:05;;;;;;;15.95;10.77;;;2.00;99.90;;;;;;5051031;28;20077;-69
2022/03/20 05:19:36;;;;;;;15.55;10.82;;;2.00;99.90;;;;;;5051461;28;20044;-69
2022/03/20 05:22:05;;;;;;;19.35;13.32;;;2.00;99.90;;;;;;5046516;28;20475;-69
2022/03/20 05:24:33;;;;;;;18.35;11.70;;;2.00;99.90;;;;;;5031567;28;20061;-69
2022/03/20 05:26:59;;;;;;;21.02;12.32;;;2.00;99.90;;;;;;5031050;28;20515;-69
2022/03/20 05:29:24;;;;;;;14.07;10.98;;;2.00;99.90;;;;;;5043917;28;20053;-69
2022/03/20 05:31:50;;;;;;;21.15;11.65;;;2.00;99.90;;;;;;5049663;28;20053;-69
2022/03/20 05:34:17;;;;;;;19.63;11.95;;;2.00;99.90;;;;;;5051207;28;20036;-69
2022/03/20 05:36:43;;;;;;;23.52;12.98;;;2.00;99.90;;;;;;5049206;28;20061;-69
2022/03/20 05:39:08;;;;;;;17.42;12.75;;;2.00;99.90;;;;;;5048458;28;20077;-69
2022/03/20 05:41:46;;;;;;;21.27;14.20;;;2.00;99.90;;;;;;5041661;28;20095;-69
2022/03/20 05:44:12;;;;;;;16.42;12.13;;;2.00;99.90;;;;;;5030707;28;20041;-69
2022/03/20 05:46:40;;;;;;;21.73;13.60;;;2.00;99.90;;;;;;5049149;28;20083;-69
2022/03/20 05:49:06;;;;;;;17.45;12.50;;;2.00;99.90;;;;;;5049808;28;20059;-69
2022/03/20 05:51:34;;;;;;;25.35;16.13;;;2.00;99.90;;;;;;5045106;28;20037;-70
2022/03/20 05:54:00;;;;;;;16.52;12.88;;;2.00;99.90;;;;;;5030878;28;20041;-70
2022/03/20 05:59:11;;;;;;;20.27;13.10;;;2.00;99.90;;;;;;5031272;28;20053;-70
2022/03/20 06:01:36;;;;;;;21.15;14.15;;;2.00;99.90;;;;;;5048615;28;20404;-70
2022/03/20 06:04:03;;;;;;;18.05;12.57;;;2.00;99.90;;;;;;5030268;28;20136;-70
2022/03/20 06:06:29;;;;;;;19.40;13.75;;;2.10;99.90;;;;;;5031094;28;20056;-71
2022/03/20 06:08:55;;;;;;;21.65;13.13;;;2.20;99.90;;;;;;5031669;28;20068;-70
2022/03/20 06:11:21;;;;;;;19.77;12.80;;;2.10;99.90;;;;;;5050148;28;20551;-70
2022/03/20 06:13:48;;;;;;;25.25;15.40;;;2.10;99.90;;;;;;5049389;28;20052;-70
2022/03/20 06:16:15;;;;;;;19.48;12.63;;;2.10;99.90;;;;;;5050997;28;20151;-70
2022/03/20 06:18:42;;;;;;;23.67;13.65;;;2.20;99.90;;;;;;5049981;28;20068;-71
2022/03/20 06:21:11;;;;;;;17.75;13.10;;;2.20;99.90;;;;;;5050746;28;20134;-70
2022/03/20 06:23:40;;;;;;;22.58;14.32;;;2.20;99.90;;;;;;5049554;28;20040;-70
2022/03/20 06:26:09;;;;;;;20.70;12.98;;;2.20;99.90;;;;;;5049070;28;20517;-70
2022/03/20 06:28:34;;;;;;;22.23;13.35;;;2.20;99.90;;;;;;5049288;28;20066;-70
2022/03/20 06:31:01;;;;;;;24.08;14.68;;;2.20;99.90;;;;;;5041110;28;20054;-70
2022/03/20 06:33:27;;;;;;;20.63;13.13;;;2.30;99.90;;;;;;5039336;28;20081;-71
2022/03/20 06:35:53;;;;;;;21.35;12.90;;;2.30;99.90;;;;;;5034551;28;20049;-70
2022/03/20 06:38:20;;;;;;;25.17;14.32;;;2.40;99.90;;;;;;5034654;28;20064;-71
2022/03/20 06:40:45;;;;;;;27.00;15.15;;;2.40;99.90;;;;;;5032618;28;20068;-71
2022/03/20 06:43:11;;;;;;;22.65;14.57;;;2.40;99.90;;;;;;5034761;28;20492;-70
2022/03/20 06:45:37;;;;;;;22.83;14.68;;;2.50;99.90;;;;;;5034494;28;20041;-70
2022/03/20 06:48:04;;;;;;;19.48;13.82;;;2.50;99.90;;;;;;5032512;28;20381;-70
2022/03/20 06:50:30;;;;;;;19.67;14.00;;;2.60;99.90;;;;;;5034685;28;20049;-70
2022/03/20 06:53:01;;;;;;;24.00;13.98;;;2.60;99.90;;;;;;5032745;28;20483;-71
2022/03/20 06:55:27;;;;;;;20.73;13.77;;;2.70;99.90;;;;;;5033729;28;20484;-70
2022/03/20 06:57:52;;;;;;;22.83;14.38;;;2.70;99.90;;;;;;5043157;28;20102;-70
2022/03/20 07:00:18;;;;;;;20.20;14.13;;;2.70;99.90;;;;;;5047214;28;20584;-71
2022/03/20 07:02:44;;;;;;;20.80;13.35;;;2.80;99.90;;;;;;5032815;28;20084;-70
2022/03/20 07:05:09;;;;;;;22.70;14.48;;;2.90;99.90;;;;;;5046414;28;20090;-71
2022/03/20 07:07:35;;;;;;;19.15;12.63;;;2.90;99.90;;;;;;5052194;28;20297;-71
2022/03/20 07:10:02;;;;;;;19.60;13.13;;;3.00;99.90;;;;;;5049648;28;20172;-70
2022/03/20 07:12:28;;;;;;;19.55;14.15;;;3.00;99.90;;;;;;5045434;28;20045;-70
2022/03/20 07:14:55;;;;;;;21.67;14.48;;;3.10;99.90;;;;;;5034330;28;20407;-70
2022/03/20 07:17:21;;;;;;;19.13;13.23;;;3.10;99.90;;;;;;5053957;28;20036;-70
2022/03/20 07:19:48;;;;;;;20.35;12.13;;;3.20;99.90;;;;;;5052205;28;20044;-70
2022/03/20 07:22:15;;;;;;;18.13;13.30;;;3.30;99.90;;;;;;5031994;28;20049;-70
2022/03/20 07:24:43;;;;;;;20.85;15.02;;;3.30;99.90;;;;;;5033463;28;20464;-71
2022/03/20 07:29:55;;;;;;;24.65;14.15;;;3.40;99.90;;;;;;5033258;28;20049;-70
2022/03/20 07:32:21;;;;;;;23.00;13.85;;;3.50;99.90;;;;;;5044396;28;20056;-70
2022/03/20 07:34:46;;;;;;;19.92;13.40;;;3.60;99.90;;;;;;5044781;28;20041;-70
2022/03/20 07:37:16;;;;;;;20.70;13.00;;;3.70;99.90;;;;;;5051799;28;20154;-70
2022/03/20 07:39:43;;;;;;;23.25;15.50;;;3.70;99.90;;;;;;5053318;28;20194;-71
2022/03/20 07:42:09;;;;;;;24.08;15.27;;;3.80;99.90;;;;;;5051977;28;20057;-71
2022/03/20 07:44:36;;;;;;;21.20;14.27;;;3.90;99.90;;;;;;5045388;28;20048;-70
2022/03/20 07:47:02;;;;;;;21.45;12.85;;;3.90;99.90;;;;;;5040348;28;20052;-71
2022/03/20 07:49:28;;;;;;;20.23;12.90;;;3.90;99.90;;;;;;5033053;28;20041;-71
2022/03/20 07:51:57;;;;;;;22.92;12.85;;;4.00;99.90;;;;;;5032550;28;20393;-71
2022/03/20 07:54:23;;;;;;;21.70;13.63;;;4.10;99.90;;;;;;5033403;28;20115;-70
2022/03/20 07:56:49;;;;;;;19.00;13.48;;;4.10;99.90;;;;;;5030997;28;20084;-70
2022/03/20 07:59:16;;;;;;;21.90;14.32;;;4.10;99.90;;;;;;5031711;28;20046;-70
2022/03/20 08:01:42;;;;;;;22.38;15.88;;;4.20;99.90;;;;;;5031837;28;20195;-71
2022/03/20 08:04:08;;;;;;;21.35;13.82;;;4.30;99.90;;;;;;5033924;28;20042;-70
2022/03/20 08:06:34;;;;;;;23.08;14.68;;;4.40;99.90;;;;;;5047588;28;20041;-70
2022/03/20 08:08:59;;;;;;;22.58;14.48;;;4.50;99.90;;;;;;5033674;28;20531;-70
2022/03/20 08:11:26;;;;;;;17.08;12.70;;;4.60;99.90;;;;;;5047832;28;20063;-70
2022/03/20 08:13:52;;;;;;;19.10;13.73;;;4.70;99.90;;;;;;5051117;28;20194;-70
2022/03/20 08:16:19;;;;;;;22.05;13.35;;;4.70;99.90;;;;;;5049126;28;20120;-70
2022/03/20 08:18:45;;;;;;;23.77;14.23;;;4.70;99.90;;;;;;5032992;28;20060;-70
2022/03/20 08:21:11;;;;;;;20.58;13.80;;;4.80;99.90;;;;;;5031701;28;20472;-69
2022/03/20 08:23:41;;;;;;;18.02;13.20;;;4.80;99.90;;;;;;5050905;28;20488;-70
2022/03/20 08:26:09;;;;;;;18.70;14.30;;;4.90;99.90;;;;;;5037669;28;20515;-71
2022/03/20 08:28:42;;;;;;;17.77;12.75;;;5.00;99.90;;;;;;5035381;28;20053;-70
2022/03/20 08:31:08;;;;;;;23.13;14.70;;;5.00;99.90;;;;;;5035160;28;20419;-71
2022/03/20 08:33:34;;;;;;;21.15;13.20;;;5.00;99.90;;;;;;5031650;28;20148;-70
2022/03/20 08:36:02;;;;;;;21.30;14.20;;;5.10;99.90;;;;;;5030792;28;20056;-74
2022/03/20 08:38:28;;;;;;;22.35;15.07;;;5.20;99.90;;;;;;5034318;28;20072;-73
2022/03/20 08:40:54;;;;;;;20.23;13.93;;;5.30;99.90;;;;;;5051548;28;20076;-74
2022/03/20 08:43:21;;;;;;;24.85;14.93;;;5.40;99.90;;;;;;5047958;28;20041;-73
2022/03/20 08:45:47;;;;;;;23.17;14.35;;;5.40;99.90;;;;;;5039053;28;20055;-77
2022/03/20 08:48:13;;;;;;;24.65;14.27;;;5.50;99.90;;;;;;5048178;28;20120;-72
2022/03/20 08:50:39;;;;;;;22.85;13.77;;;5.60;99.90;;;;;;5038101;28;20574;-73
2022/03/20 08:53:05;;;;;;;21.88;15.02;;;5.70;99.90;;;;;;5032897;28;20053;-73
2022/03/20 08:55:34;;;;;;;22.08;14.75;;;5.80;99.90;;;;;;5046691;28;20372;-74
2022/03/20 08:58:00;;;;;;;22.23;15.32;;;5.90;99.90;;;;;;5049791;28;20056;-73
2022/03/20 09:00:26;;;;;;;20.48;13.95;;;5.90;99.90;;;;;;5034684;28;20128;-70
2022/03/20 09:02:53;;;;;;;20.48;15.40;;;6.00;99.90;;;;;;5042630;28;20044;-71
2022/03/20 09:05:20;;;;;;;20.98;14.80;;;6.10;99.90;;;;;;5054920;28;20131;-71
2022/03/20 09:07:48;;;;;;;22.60;16.40;;;6.10;99.90;;;;;;5034413;28;20052;-71
2022/03/20 09:10:15;;;;;;;28.50;15.93;;;6.20;99.90;;;;;;5039925;28;20094;-70
2022/03/20 09:12:44;;;;;;;26.98;16.63;;;6.20;99.90;;;;;;5035623;28;20049;-70
2022/03/20 09:15:16;;;;;;;20.83;14.52;;;6.20;99.90;;;;;;5039995;28;20053;-71
2022/03/20 09:20:28;;;;;;;25.40;15.80;;;6.30;99.90;;;;;;5040321;28;20049;-71
2022/03/20 09:22:53;;;;;;;26.67;15.73;;;6.30;99.90;;;;;;5048745;28;20051;-71
2022/03/20 09:25:19;;;;;;;23.48;15.35;;;6.30;99.90;;;;;;5031064;28;20123;-72
2022/03/20 09:27:48;;;;;;;27.40;15.55;;;6.40;99.90;;;;;;5030439;28;20056;-70
2022/03/20 09:30:14;;;;;;;22.17;15.35;;;6.40;99.90;;;;;;5044050;28;20045;-71
2022/03/20 09:32:40;;;;;;;20.92;14.68;;;6.50;99.90;;;;;;5033663;28;20061;-71
2022/03/20 09:35:06;;;;;;;27.67;16.77;;;6.60;99.90;;;;;;5040905;28;20438;-71
2022/03/20 09:37:32;;;;;;;24.55;17.30;;;6.70;99.90;;;;;;5041826;28;20494;-71
2022/03/20 09:39:57;;;;;;;22.25;15.07;;;6.80;99.90;;;;;;5029562;28;20049;-70
2022/03/20 09:42:23;;;;;;;21.30;15.20;;;6.80;99.90;;;;;;5029113;28;20061;-71
2022/03/20 09:44:50;;;;;;;25.35;17.33;;;6.90;99.90;;;;;;5030658;28;20369;-70
2022/03/20 09:47:19;;;;;;;23.35;16.30;;;6.90;99.90;;;;;;5029453;28;20049;-71
2022/03/20 09:49:46;;;;;;;25.10;16.95;;;7.00;99.90;;;;;;5029664;28;20138;-70
2022/03/20 09:52:13;;;;;;;24.25;17.70;;;7.10;99.90;;;;;;5029094;28;20050;-71
2022/03/20 09:54:38;;;;;;;26.90;17.77;;;7.10;99.90;;;;;;5030166;28;20156;-69
2022/03/20 09:57:06;;;;;;;24.80;16.55;;;7.20;99.90;;;;;;5028886;28;20113;-69
2022/03/20 09:59:33;;;;;;;22.45;15.30;;;7.30;99.90;;;;;;5030539;28;20048;-68
2022/03/20 10:02:06;;;;;;;26.08;18.27;;;7.30;99.90;;;;;;5030355;28;20483;-69
2022/03/20 10:04:34;;;;;;;23.80;16.55;;;7.50;99.90;;;;;;5038815;28;20479;-71
2022/03/20 10:07:00;;;;;;;23.83;16.92;;;7.50;99.90;;;;;;5033530;28;20064;-71
2022/03/20 10:09:26;;;;;;;31.27;18.00;;;7.60;99.00;;;;;;5029509;28;20400;-72
2022/03/20 10:11:57;;;;;;;25.50;17.92;;;7.70;99.90;;;;;;5034941;28;20091;-72
2022/03/20 10:14:26;;;;;;;27.30;17.95;;;7.80;98.70;;;;;;5043039;28;20504;-71
2022/03/20 10:17:11;;;;;;;25.92;16.50;;;7.90;97.70;;;;;;5040583;28;20045;-71
2022/03/20 10:19:37;;;;;;;25.40;17.52;;;8.00;96.10;;;;;;5036642;28;20049;-68
2022/03/20 10:22:04;;;;;;;26.90;17.77;;;8.00;96.90;;;;;;5045252;28;20495;-69
2022/03/20 10:24:32;;;;;;;26.80;18.52;;;8.10;96.60;;;;;;5028252;28;20391;-69
2022/03/20 10:27:00;;;;;;;26.85;18.27;;;8.30;95.50;;;;;;5028841;28;20056;-69
2022/03/20 10:29:28;;;;;;;27.23;17.92;;;8.30;94.50;;;;;;5040061;28;20057;-69
2022/03/20 10:31:56;;;;;;;26.95;16.90;;;8.30;94.00;;;;;;5048217;28;20170;-68
2022/03/20 10:34:26;;;;;;;26.13;18.02;;;8.50;94.70;;;;;;5042021;28;20531;-68
2022/03/20 10:36:52;;;;;;;23.70;16.40;;;8.50;90.80;;;;;;5028411;28;20096;-70
2022/03/20 10:39:25;;;;;;;25.25;18.17;;;8.50;92.00;;;;;;5036161;28;20100;-71
2022/03/20 10:41:56;;;;;;;28.80;18.77;;;8.60;91.40;;;;;;5050741;28;20399;-71
2022/03/20 10:44:26;;;;;;;23.92;16.27;;;8.60;88.70;;;;;;5045514;28;20444;-71
2022/03/20 10:47:12;;;;;;;22.92;17.23;;;8.60;88.60;;;;;;5042667;28;20041;-71
2022/03/20 10:49:40;;;;;;;27.13;19.45;;;8.60;85.70;;;;;;5036697;28;20491;-71
2022/03/20 10:52:08;;;;;;;37.15;18.40;;;8.70;87.00;;;;;;5039290;28;20091;-71
2022/03/20 10:54:46;;;;;;;25.48;18.48;;;8.80;88.90;;;;;;5043234;28;20041;-71
2022/03/20 10:57:13;;;;;;;28.65;18.15;;;8.80;85.20;;;;;;5042231;28;20041;-71
2022/03/20 10:59:40;;;;;;;25.35;17.98;;;8.90;86.80;;;;;;5041455;28;20077;-68
2022/03/20 11:02:18;;;;;;;33.40;19.33;;;8.90;84.60;;;;;;5050829;28;20537;-68
2022/03/20 11:04:45;;;;;;;28.27;18.83;;;9.00;83.00;;;;;;5050673;28;20075;-68
2022/03/20 11:07:16;;;;;;;26.23;16.98;;;9.00;83.50;;;;;;5039433;28;20479;-69
2022/03/20 11:09:47;;;;;;;25.83;17.20;;;9.10;83.50;;;;;;5028793;28;20060;-70
2022/03/20 11:12:34;;;;;;;26.30;17.97;;;9.20;84.80;;;;;;5029720;28;20095;-70
2022/03/20 11:15:04;;;;;;;25.42;19.58;;;9.30;82.40;;;;;;5028791;28;20056;-69
2022/03/20 11:17:44;;;;;;;25.73;17.92;;;9.40;81.20;;;;;;5028423;28;20057;-69
2022/03/20 11:20:15;;;;;;;27.77;20.05;;;9.40;79.40;;;;;;5030547;28;20045;-69
2022/03/20 11:22:49;;;;;;;27.50;18.70;;;9.40;77.70;;;;;;5030852;28;20590;-70
2022/03/20 11:25:22;;;;;;;25.35;18.48;;;9.40;79.60;;;;;;5033047;28;20136;-69
2022/03/20 11:27:53;;;;;;;26.80;18.23;;;9.30;78.20;;;;;;5030433;28;20046;-70
2022/03/20 11:30:22;;;;;;;33.08;19.33;;;9.40;78.70;;;;;;5036581;28;20049;-70
2022/03/20 11:32:48;;;;;;;30.77;19.80;;;9.50;80.20;;;;;;5034583;28;20488;-70
2022/03/20 11:35:14;;;;;;;28.85;19.65;;;9.50;76.80;;;;;;5031350;28;20560;-69
2022/03/20 11:37:45;;;;;;;26.55;19.58;;;9.50;76.40;;;;;;5032952;28;20099;-70
2022/03/20 11:40:19;;;;;;;26.63;17.98;;;9.50;76.30;;;;;;5038386;28;20468;-70
2022/03/20 11:42:45;;;;;;;26.63;18.52;;;9.60;77.00;;;;;;5047450;28;20049;-70
2022/03/20 11:45:14;;;;;;;27.35;18.90;;;9.70;76.90;;;;;;5032277;28;20530;-70
2022/03/20 11:47:42;;;;;;;26.92;19.67;;;9.80;78.30;;;;;;5032703;28;20037;-70
2022/03/20 11:50:25;;;;;;;30.33;21.00;;;10.10;80.60;;;;;;5031781;28;20103;-69
2022/03/20 11:53:04;;;;;;;26.42;19.60;;;10.20;73.90;;;;;;5032073;28;20037;-69
2022/03/20 11:55:32;;;;;;;26.85;18.20;;;10.30;75.20;;;;;;5032002;28;20124;-70
2022/03/20 11:58:21;;;;;;;28.83;19.48;;;10.30;76.20;;;;;;5030341;28;20041;-69
2022/03/20 12:01:07;;;;;;;26.77;18.67;;;10.40;72.60;;;;;;5025727;28;20053;-69
2022/03/20 12:03:43;;;;;;;30.10;19.88;;;10.50;73.00;;;;;;5030609;28;20037;-69
2022/03/20 12:06:26;;;;;;;24.25;19.52;;;10.50;73.80;;;;;;5036984;28;20085;-68
2022/03/20 12:09:10;;;;;;;29.02;20.77;;;10.60;70.70;;;;;;5049277;28;20126;-69
2022/03/20 12:12:13;;;;;;;28.20;19.67;;;10.60;69.80;;;;;;5037392;28;20061;-71
2022/03/20 12:14:53;;;;;;;31.00;19.10;;;10.80;71.50;;;;;;5032154;28;20514;-73
2022/03/20 12:17:19;;;;;;;28.33;18.50;;;10.80;71.30;;;;;;5030136;28;20048;-73
2022/03/20 12:19:53;;;;;;;27.52;18.02;;;10.80;70.80;;;;;;5030755;28;20049;-74
2022/03/20 12:22:19;;;;;;;25.92;19.65;;;10.80;68.90;;;;;;5031183;28;20084;-73
2022/03/20 12:24:54;;;;;;;28.63;18.92;;;10.80;66.70;;;;;;5029625;28;20683;-73
2022/03/20 12:27:22;;;;;;;33.63;19.45;;;10.70;67.30;;;;;;5030359;28;20541;-75
2022/03/20 12:29:48;;;;;;;24.98;18.48;;;10.70;70.00;;;;;;5064299;28;20048;-74
2022/03/20 12:32:14;;;;;;;25.05;19.30;;;10.70;68.50;;;;;;5068952;28;20122;-75
2022/03/20 12:34:45;;;;;;;29.05;21.23;;;10.70;68.70;;;;;;5070496;28;20095;-75
2022/03/20 12:37:33;;;;;;;26.52;19.35;;;10.90;68.50;;;;;;5069568;28;20443;-75
2022/03/20 12:40:20;;;;;;;30.33;20.35;;;11.10;66.20;;;;;;5046032;28;20491;-75
2022/03/20 12:43:07;;;;;;;28.95;19.88;;;11.20;64.60;;;;;;5035606;28;20131;-75
2022/03/20 12:45:36;;;;;;;25.05;18.92;;;11.20;65.40;;;;;;5036358;28;20045;-74
2022/03/20 12:48:10;;;;;;;28.45;18.70;;;11.30;65.60;;;;;;5045049;28;20041;-74
2022/03/20 12:50:41;;;;;;;24.80;18.17;;;11.30;64.80;;;;;;5031840;28;20049;-75
2022/03/20 12:53:14;;;;;;;28.10;18.20;;;11.40;66.00;;;;;;5029220;28;20061;-75
2022/03/20 12:55:41;;;;;;;27.10;19.63;;;11.40;65.10;;;;;;5027347;28;20099;-75
2022/03/20 12:58:13;;;;;;;25.80;19.10;;;11.40;64.50;;;;;;5032118;28;20413;-75
2022/03/20 13:00:38;;;;;;;;;;;11.40;65.70;;;;;;5034368;28;20037;-75
2022/03/20 13:03:08;;;;;;;22.10;18.05;;;11.50;63.50;;;;;;5034846;28;19929;-75
2022/03/20 13:05:55;;;;;;;25.48;17.60;;;11.50;63.70;;;;;;5030947;28;20115;-76
2022/03/20 13:08:28;;;;;;;31.38;19.15;;;11.50;63.70;;;;;;5045918;28;20057;-75
2022/03/20 13:11:00;;;;;;;29.02;19.52;;;11.60;63.90;;;;;;5046869;28;20045;-75
2022/03/20 13:13:31;;;;;;;28.90;18.85;;;11.50;63.00;;;;;;5031211;28;20523;-75
2022/03/20 13:15:56;;;;;;;24.35;17.15;;;11.50;63.30;;;;;;5046434;28;20199;-75